Heroic Leader — C6ZD2 — position and weather

sailwx.info

Track history (hours):
 
Tides and Currents Weather Stations Pressure Air Temp Water Temp Dewpoint Dewpoint Depression Visibility Wind Speed Wind Dir Waves Ship Positions

Heroic Leader

Last reported at 2016-Jul-23 10:33 UTC. Time now 2016-Jul-27 11:37 UTC.
Position N 34°52' E 140°16'.

Length 200 m; draft 9.3 m.

Type: Cargo ship. MMSI: 311052700.

Date/timePositionNaut miles runAvg speedWind from/ knotsBaromVisibWave heightAir tempDewpointWater temp
2016-Jul-23 10:33N 34°52' E 140°16'1514.8
2016-Jul-23 09:33N 34°50' E 139°58'1514.1
2016-Jul-23 08:31N 34°57' E 139°42'1415.2
2016-Jul-23 07:33N 35°11' E 139°45'1211.9
2016-Jul-23 06:34N 35°23' E 139°42'8 3.8
2016-Jul-23 04:33N 35°30' E 139°46'0 0.0
2016-Jul-23 03:33N 35°30' E 139°46'0 0.0
2016-Jul-23 02:33N 35°30' E 139°46'0 0.0
2016-Jul-23 01:33N 35°30' E 139°46'0 0.0
2016-Jul-23 00:33N 35°30' E 139°46'0 0.0
2016-Jul-22 23:33N 35°30' E 139°46'0 0.0
2016-Jul-22 22:32N 35°30' E 139°46'0 0.0
2016-Jul-22 21:32N 35°30' E 139°46'0 0.0
2016-Jul-22 20:33N 35°30' E 139°46'0 0.0
2016-Jul-22 19:32N 35°30' E 139°46'0 0.0
2016-Jul-22 18:33N 35°30' E 139°46'0 0.0
2016-Jul-22 17:32N 35°30' E 139°46'0 0.0
2016-Jul-22 16:33N 35°30' E 139°46'0 0.0
2016-Jul-22 15:32N 35°30' E 139°46'0 0.0
2016-Jul-22 14:33N 35°30' E 139°46'0 0.0
2016-Jul-22 13:32N 35°30' E 139°46'0 0.0
2016-Jul-22 12:32N 35°30' E 139°46'0 0.0
2016-Jul-22 11:32N 35°30' E 139°46'0 0.0
2016-Jul-22 10:32N 35°30' E 139°46'0 0.0
2016-Jul-22 07:31N 35°30' E 139°46'0 0.0
2016-Jul-22 04:31N 35°30' E 139°46'0 0.0
2016-Jul-22 03:31N 35°30' E 139°46'0 0.0
2016-Jul-22 02:31N 35°30' E 139°46'0 0.0
2016-Jul-22 01:31N 35°30' E 139°46'0 0.0
2016-Jul-22 00:31N 35°30' E 139°46'0 0.0
2016-Jul-21 23:31N 35°30' E 139°46'0 0.3
2016-Jul-21 22:31N 35°30' E 139°46'6 6.0
2016-Jul-21 21:33N 35°24' E 139°46'6 5.7
2016-Jul-21 20:33N 35°20' E 139°41'0 0.0
2016-Jul-21 19:33N 35°20' E 139°41'0 0.0
2016-Jul-21 18:30N 35°20' E 139°41'0 0.0
2016-Jul-21 17:33N 35°20' E 139°41'0 0.0
2016-Jul-21 16:33N 35°20' E 139°41'0 0.0
2016-Jul-21 15:33N 35°20' E 139°41'0 0.0
2016-Jul-21 14:33N 35°20' E 139°41'0 0.0
2016-Jul-21 13:33N 35°20' E 139°41'0 0.0
2016-Jul-21 12:33N 35°20' E 139°41'0 0.0
2016-Jul-21 11:33N 35°20' E 139°41'0 0.0
2016-Jul-21 10:33N 35°20' E 139°41'0 0.0
2016-Jul-21 09:33N 35°20' E 139°41'0 0.0
2016-Jul-21 08:33N 35°20' E 139°41'3 2.6
2016-Jul-21 07:34N 35°17' E 139°41'0 0.2
2016-Jul-21 06:28N 35°17' E 139°41'0 0.0
2016-Jul-21 05:32N 35°17' E 139°41'0 0.0
2016-Jul-21 04:31N 35°17' E 139°41'0 0.0
2016-Jul-21 03:32N 35°17' E 139°41'0 0.0
2016-Jul-21 02:31N 35°17' E 139°41'0 0.0
2016-Jul-21 01:31N 35°17' E 139°41'0 0.0
2016-Jul-21 00:31N 35°17' E 139°41'0 0.0
2016-Jul-20 23:31N 35°17' E 139°41'0 0.0
2016-Jul-20 22:31N 35°17' E 139°41'0 0.0
2016-Jul-20 21:28N 35°17' E 139°41'0 0.0
2016-Jul-20 20:22N 35°17' E 139°41'0 0.0
2016-Jul-20 17:22N 35°17' E 139°41'0 0.0
2016-Jul-20 16:31N 35°17' E 139°41'0 0.0
2016-Jul-20 15:31N 35°17' E 139°41'0 0.0
2016-Jul-20 14:31N 35°17' E 139°41'0 0.0
2016-Jul-20 13:31N 35°17' E 139°41'0 0.0
2016-Jul-20 12:31N 35°17' E 139°41'0 0.0
2016-Jul-20 11:31N 35°17' E 139°41'0 0.0
2016-Jul-20 10:13N 35°17' E 139°41'0 0.0
2016-Jul-20 09:19N 35°17' E 139°41'0 0.0
2016-Jul-20 08:28N 35°17' E 139°41'0 0.0
2016-Jul-20 07:19N 35°17' E 139°41'1 0.8
2016-Jul-20 06:34N 35°17' E 139°41'1110.5
2016-Jul-20 05:34N 35°28' E 139°42'1 1.0
2016-Jul-20 04:32N 35°28' E 139°41'0 0.0
2016-Jul-20 03:32N 35°28' E 139°41'0 0.0
2016-Jul-20 02:32N 35°28' E 139°41'0 0.0
2016-Jul-20 01:32N 35°28' E 139°41'0 0.0
2016-Jul-20 00:29N 35°28' E 139°41'0 0.1
2016-Jul-19 23:32N 35°28' E 139°41'0 0.0
2016-Jul-19 22:32N 35°28' E 139°41'1 1.3
2016-Jul-19 21:33N 35°28' E 139°42'8 8.4
2016-Jul-19 20:33N 35°19' E 139°44'1111.1
2016-Jul-19 19:33N 35°08' E 139°46'10 9.7
2016-Jul-19 18:33N 34°59' E 139°41'1010.2
2016-Jul-19 17:33N 34°50' E 139°37'1212.2
2016-Jul-19 16:34N 34°39' E 139°31'1312.9
2016-Jul-19 15:33N 34°36' E 139°16'  
Track history (hours):
 
Tides and Currents Weather Stations Pressure Air Temp Water Temp Dewpoint Dewpoint Depression Visibility Wind Speed Wind Dir Waves Ship Positions

Heroic Leader

Last reported at 2016-Jul-23 10:33 UTC. Time now 2016-Jul-27 11:37 UTC.
Position N 34°52' E 140°16'.

Length 200 m; draft 9.3 m.

Type: Cargo ship. MMSI: 311052700.

Date/timePositionNaut miles runAvg speedWind from/ knotsBaromVisibWave heightAir tempDewpointWater temp
2016-Jul-23 10:33N 34°52' E 140°16'1514.8
2016-Jul-23 09:33N 34°50' E 139°58'1514.1
2016-Jul-23 08:31N 34°57' E 139°42'1415.2
2016-Jul-23 07:33N 35°11' E 139°45'1211.9
2016-Jul-23 06:34N 35°23' E 139°42'8 3.8
2016-Jul-23 04:33N 35°30' E 139°46'0 0.0
2016-Jul-23 03:33N 35°30' E 139°46'0 0.0
2016-Jul-23 02:33N 35°30' E 139°46'0 0.0
2016-Jul-23 01:33N 35°30' E 139°46'0 0.0
2016-Jul-23 00:33N 35°30' E 139°46'0 0.0
2016-Jul-22 23:33N 35°30' E 139°46'0 0.0
2016-Jul-22 22:32N 35°30' E 139°46'0 0.0
2016-Jul-22 21:32N 35°30' E 139°46'0 0.0
2016-Jul-22 20:33N 35°30' E 139°46'0 0.0
2016-Jul-22 19:32N 35°30' E 139°46'0 0.0
2016-Jul-22 18:33N 35°30' E 139°46'0 0.0
2016-Jul-22 17:32N 35°30' E 139°46'0 0.0
2016-Jul-22 16:33N 35°30' E 139°46'0 0.0
2016-Jul-22 15:32N 35°30' E 139°46'0 0.0
2016-Jul-22 14:33N 35°30' E 139°46'0 0.0
2016-Jul-22 13:32N 35°30' E 139°46'0 0.0
2016-Jul-22 12:32N 35°30' E 139°46'0 0.0
2016-Jul-22 11:32N 35°30' E 139°46'0 0.0
2016-Jul-22 10:32N 35°30' E 139°46'0 0.0
2016-Jul-22 07:31N 35°30' E 139°46'0 0.0
2016-Jul-22 04:31N 35°30' E 139°46'0 0.0
2016-Jul-22 03:31N 35°30' E 139°46'0 0.0
2016-Jul-22 02:31N 35°30' E 139°46'0 0.0
2016-Jul-22 01:31N 35°30' E 139°46'0 0.0
2016-Jul-22 00:31N 35°30' E 139°46'0 0.0
2016-Jul-21 23:31N 35°30' E 139°46'0 0.3
2016-Jul-21 22:31N 35°30' E 139°46'6 6.0
2016-Jul-21 21:33N 35°24' E 139°46'6 5.7
2016-Jul-21 20:33N 35°20' E 139°41'0 0.0
2016-Jul-21 19:33N 35°20' E 139°41'0 0.0
2016-Jul-21 18:30N 35°20' E 139°41'0 0.0
2016-Jul-21 17:33N 35°20' E 139°41'0 0.0
2016-Jul-21 16:33N 35°20' E 139°41'0 0.0
2016-Jul-21 15:33N 35°20' E 139°41'0 0.0
2016-Jul-21 14:33N 35°20' E 139°41'0 0.0
2016-Jul-21 13:33N 35°20' E 139°41'0 0.0
2016-Jul-21 12:33N 35°20' E 139°41'0 0.0
2016-Jul-21 11:33N 35°20' E 139°41'0 0.0
2016-Jul-21 10:33N 35°20' E 139°41'0 0.0
2016-Jul-21 09:33N 35°20' E 139°41'0 0.0
2016-Jul-21 08:33N 35°20' E 139°41'3 2.6
2016-Jul-21 07:34N 35°17' E 139°41'0 0.2
2016-Jul-21 06:28N 35°17' E 139°41'0 0.0
2016-Jul-21 05:32N 35°17' E 139°41'0 0.0
2016-Jul-21 04:31N 35°17' E 139°41'0 0.0
2016-Jul-21 03:32N 35°17' E 139°41'0 0.0
2016-Jul-21 02:31N 35°17' E 139°41'0 0.0
2016-Jul-21 01:31N 35°17' E 139°41'0 0.0
2016-Jul-21 00:31N 35°17' E 139°41'0 0.0
2016-Jul-20 23:31N 35°17' E 139°41'0 0.0
2016-Jul-20 22:31N 35°17' E 139°41'0 0.0
2016-Jul-20 21:28N 35°17' E 139°41'0 0.0
2016-Jul-20 20:22N 35°17' E 139°41'0 0.0
2016-Jul-20 17:22N 35°17' E 139°41'0 0.0
2016-Jul-20 16:31N 35°17' E 139°41'0 0.0
2016-Jul-20 15:31N 35°17' E 139°41'0 0.0
2016-Jul-20 14:31N 35°17' E 139°41'0 0.0
2016-Jul-20 13:31N 35°17' E 139°41'0 0.0
2016-Jul-20 12:31N 35°17' E 139°41'0 0.0
2016-Jul-20 11:31N 35°17' E 139°41'0 0.0
2016-Jul-20 10:13N 35°17' E 139°41'0 0.0
2016-Jul-20 09:19N 35°17' E 139°41'0 0.0
2016-Jul-20 08:28N 35°17' E 139°41'0 0.0
2016-Jul-20 07:19N 35°17' E 139°41'1 0.8
2016-Jul-20 06:34N 35°17' E 139°41'1110.5
2016-Jul-20 05:34N 35°28' E 139°42'1 1.0
2016-Jul-20 04:32N 35°28' E 139°41'0 0.0
2016-Jul-20 03:32N 35°28' E 139°41'0 0.0
2016-Jul-20 02:32N 35°28' E 139°41'0 0.0
2016-Jul-20 01:32N 35°28' E 139°41'0 0.0
2016-Jul-20 00:29N 35°28' E 139°41'0 0.1
2016-Jul-19 23:32N 35°28' E 139°41'0 0.0
2016-Jul-19 22:32N 35°28' E 139°41'1 1.3
2016-Jul-19 21:33N 35°28' E 139°42'8 8.4
2016-Jul-19 20:33N 35°19' E 139°44'1111.1
2016-Jul-19 19:33N 35°08' E 139°46'10 9.7
2016-Jul-19 18:33N 34°59' E 139°41'1010.2
2016-Jul-19 17:33N 34°50' E 139°37'1212.2
2016-Jul-19 16:34N 34°39' E 139°31'1312.9
2016-Jul-19 15:33N 34°36' E 139°16'  

Dump ship's entire track history